Time;durP1;ratioP1;P1;durP2;ratioP2;P2;SDS_P1;SDS_P2;PMS_P1;PMS_P2;Temp;Humidity;BMP_temperature;BMP_pressure;BME280_temperature;BME280_humidity;BME280_pressure;Samples;Min_cycle;Max_cycle;Signal;HPM_P1;HPM_P2
2022/10/25 00:00:48;;;;;;;12.32;3.17;;;;;;;12.55;100.00;101076.75;5086873;28;20028;-60
2022/10/25 00:03:14;;;;;;;13.82;3.22;;;;;;;12.54;100.00;101075.09;5090484;28;20048;-59
2022/10/25 00:05:40;;;;;;;15.82;3.45;;;;;;;12.53;100.00;101080.56;5083297;28;20101;-60
2022/10/25 00:08:05;;;;;;;11.43;3.05;;;;;;;12.50;100.00;101089.72;5091847;28;20028;-60
2022/10/25 00:10:31;;;;;;;11.63;3.22;;;;;;;12.51;100.00;101094.88;5084305;28;20027;-60
2022/10/25 00:12:57;;;;;;;12.75;3.33;;;;;;;12.51;100.00;101097.53;5089636;28;20027;-61
2022/10/25 00:15:22;;;;;;;9.57;3.13;;;;;;;12.52;100.00;101093.03;5091999;28;20032;-60
2022/10/25 00:17:48;;;;;;;9.52;2.97;;;;;;;12.53;100.00;101089.34;5091232;28;20035;-59
2022/10/25 00:20:13;;;;;;;14.52;3.65;;;;;;;12.57;100.00;101095.19;5091831;28;20032;-60
2022/10/25 00:22:38;;;;;;;14.40;3.30;;;;;;;12.58;100.00;101086.22;5089882;28;20024;-60
2022/10/25 00:25:06;;;;;;;12.32;3.35;;;;;;;12.61;100.00;101091.19;5091400;28;20023;-61
2022/10/25 00:27:32;;;;;;;12.82;3.58;;;;;;;12.61;100.00;101092.03;5092002;28;20062;-59
2022/10/25 00:29:57;;;;;;;12.02;3.38;;;;;;;12.61;100.00;101096.50;5092040;28;20380;-60
2022/10/25 00:32:22;;;;;;;15.55;3.33;;;;;;;12.61;100.00;101096.50;5090280;28;20035;-60
2022/10/25 00:34:47;;;;;;;15.73;3.38;;;;;;;12.61;100.00;101102.66;5090729;28;20460;-60
2022/10/25 00:37:13;;;;;;;12.68;3.30;;;;;;;12.65;100.00;101100.50;5091133;28;20024;-60
2022/10/25 00:39:38;;;;;;;12.88;3.20;;;;;;;12.67;100.00;101100.34;5091289;28;20483;-59
2022/10/25 00:42:04;;;;;;;11.23;3.00;;;;;;;12.67;100.00;101101.16;5091424;28;20111;-61
2022/10/25 00:44:53;;;;;;;14.02;3.38;;;;;;;12.72;100.00;101104.13;5093130;28;20030;-60
2022/10/25 00:47:18;;;;;;;13.38;3.10;;;;;;;12.72;100.00;101098.81;5095715;28;20039;-60
2022/10/25 00:49:52;;;;;;;13.63;3.38;;;;;;;12.73;100.00;101105.78;5098010;28;20028;-60
2022/10/25 00:52:18;;;;;;;11.48;3.35;;;;;;;12.72;100.00;101104.13;5097586;28;20020;-60
2022/10/25 00:54:47;;;;;;;15.52;2.95;;;;;;;12.76;100.00;101097.50;5097620;28;20678;-61
2022/10/25 00:57:25;;;;;;;14.25;3.33;;;;;;;12.74;100.00;101104.78;5097044;28;20035;-59
2022/10/25 00:59:51;;;;;;;14.75;3.40;;;;;;;12.73;100.00;101105.78;5096643;28;20042;-60
2022/10/25 01:02:17;;;;;;;11.52;2.95;;;;;;;12.75;100.00;101103.81;5098690;28;20036;-60
2022/10/25 01:04:43;;;;;;;12.95;2.97;;;;;;;12.72;100.00;101112.13;5098083;28;20028;-60
2022/10/25 01:07:08;;;;;;;11.85;3.30;;;;;;;12.70;100.00;101106.16;5098859;28;20518;-60
2022/10/25 01:09:35;;;;;;;16.38;3.47;;;;;;;12.69;100.00;101101.84;5097173;28;20540;-60
2022/10/25 01:12:00;;;;;;;16.00;3.40;;;;;;;12.72;100.00;101109.47;5098510;28;20106;-60
2022/10/25 01:14:26;;;;;;;13.32;2.95;;;;;;;12.70;100.00;101123.94;5098226;28;20103;-60
2022/10/25 01:17:19;;;;;;;15.90;3.53;;;;;;;12.70;100.00;101122.13;5098318;28;20082;-60
2022/10/25 01:20:03;;;;;;;13.37;3.27;;;;;;;12.68;100.00;101113.44;5096559;28;20027;-60
2022/10/25 01:22:37;;;;;;;14.63;3.25;;;;;;;12.69;100.00;101120.47;5097043;28;20032;-60
2022/10/25 01:25:16;;;;;;;15.77;3.15;;;;;;;12.65;100.00;101119.13;5088428;28;20411;-60
2022/10/25 01:27:58;;;;;;;15.63;3.03;;;;;;;12.62;100.00;101124.75;5096833;28;20045;-60
2022/10/25 01:30:48;;;;;;;17.65;2.90;;;;;;;12.65;100.00;101125.25;5096138;28;20052;-61
2022/10/25 01:33:25;;;;;;;14.45;3.03;;;;;;;12.62;100.00;101125.63;5095981;28;20034;-59
2022/10/25 01:36:00;;;;;;;12.38;2.65;;;;;;;12.61;100.00;101133.75;5097346;28;20027;-61
2022/10/25 01:38:42;;;;;;;11.15;2.78;;;;;;;12.75;100.00;101134.91;5097863;28;20028;-60
2022/10/25 01:41:26;;;;;;;20.20;3.22;;;;;;;12.63;100.00;101135.25;5086740;28;20038;-60
2022/10/25 01:44:14;;;;;;;10.98;2.80;;;;;;;12.63;100.00;101137.91;5097518;28;20031;-61
2022/10/25 01:47:00;;;;;;;15.50;2.80;;;;;;;12.65;100.00;101132.44;5095564;28;20466;-60
2022/10/25 01:49:36;;;;;;;12.57;3.00;;;;;;;12.59;100.00;101135.75;5093387;28;20034;-60
2022/10/25 01:52:02;;;;;;;13.30;2.70;;;;;;;12.60;100.00;101132.09;5091549;28;20463;-60
2022/10/25 01:54:28;;;;;;;11.57;2.78;;;;;;;12.60;100.00;101137.41;5096459;28;20028;-61
2022/10/25 01:57:28;;;;;;;15.60;2.97;;;;;;;12.62;100.00;101143.38;5093448;28;20036;-60
2022/10/25 02:00:23;;;;;;;9.48;2.78;;;;;;;12.55;100.00;101139.75;5081090;28;20052;-59
2022/10/25 02:02:54;;;;;;;13.75;2.83;;;;;;;12.59;100.00;101141.91;5090779;28;20437;-60
2022/10/25 02:05:50;;;;;;;16.38;3.25;;;;;;;12.57;100.00;101133.25;5091984;28;20028;-60
2022/10/25 02:08:43;;;;;;;12.75;2.97;;;;;;;12.57;100.00;101137.72;5094609;28;20070;-60
2022/10/25 02:11:14;;;;;;;;;;;;;;;12.63;100.00;101153.06;5087683;28;20043;-60
2022/10/25 02:13:58;;;;;;;14.70;2.80;;;;;;;12.58;100.00;101150.06;5093395;28;19915;-60
2022/10/25 02:16:31;;;;;;;13.30;2.90;;;;;;;12.54;100.00;101148.72;5092390;28;20552;-61
2022/10/25 02:19:02;;;;;;;9.82;2.85;;;;;;;12.55;100.00;101153.03;5093541;28;20028;-60
2022/10/25 02:21:31;;;;;;;13.40;3.10;;;;;;;12.56;100.00;101154.69;5094009;28;20158;-60
2022/10/25 02:24:00;;;;;;;10.32;2.80;;;;;;;12.53;100.00;101155.06;5093036;28;20511;-60
2022/10/25 02:26:26;;;;;;;11.35;3.05;;;;;;;12.50;100.00;101148.22;5083956;28;20169;-60
2022/10/25 02:28:53;;;;;;;9.85;2.85;;;;;;;12.49;100.00;101152.72;5088143;28;20035;-60
2022/10/25 02:31:20;;;;;;;14.82;3.15;;;;;;;12.46;100.00;101154.88;5094033;28;20027;-60
2022/10/25 02:33:46;;;;;;;13.43;3.17;;;;;;;12.46;100.00;101152.22;5092377;28;20035;-60
2022/10/25 02:36:14;;;;;;;11.52;2.80;;;;;;;12.41;100.00;101150.06;5093380;28;20107;-60
2022/10/25 02:38:41;;;;;;;15.43;3.20;;;;;;;12.47;100.00;101160.03;5093770;28;20042;-60
2022/10/25 02:41:07;;;;;;;10.35;2.88;;;;;;;12.42;100.00;101159.69;5080525;28;20113;-60
2022/10/25 02:43:32;;;;;;;10.98;3.10;;;;;;;12.47;100.00;101161.84;5092793;28;20701;-61
2022/10/25 02:45:58;;;;;;;12.68;3.20;;;;;;;12.38;100.00;101155.69;5093145;28;20112;-59
2022/10/25 02:48:24;;;;;;;9.88;3.03;;;;;;;12.41;100.00;101160.69;5092718;28;20027;-60
2022/10/25 02:50:49;;;;;;;10.55;3.00;;;;;;;12.40;100.00;101169.69;5088242;28;20445;-60
2022/10/25 02:53:15;;;;;;;11.07;3.20;;;;;;;12.38;100.00;101161.84;5093132;28;20099;-60
2022/10/25 02:55:40;;;;;;;11.00;2.92;;;;;;;12.40;100.00;101167.03;5093032;28;20114;-60
2022/10/25 02:58:05;;;;;;;12.95;2.78;;;;;;;12.37;100.00;101164.69;5093352;28;20027;-61
2022/10/25 03:00:30;;;;;;;12.93;3.25;;;;;;;12.37;100.00;101170.00;5092554;28;20422;-60
2022/10/25 03:02:56;;;;;;;11.82;2.90;;;;;;;12.37;100.00;101176.16;5092408;28;20028;-62
2022/10/25 03:05:21;;;;;;;9.95;2.70;;;;;;;12.37;100.00;101175.31;5090310;28;20035;-60
2022/10/25 03:07:47;;;;;;;12.27;2.80;;;;;;;12.37;100.00;101170.00;5090788;28;20032;-60
2022/10/25 03:10:12;;;;;;;12.50;3.20;;;;;;;12.36;100.00;101163.00;5092839;28;20039;-59
2022/10/25 03:12:37;;;;;;;10.40;2.85;;;;;;;12.35;100.00;101166.69;5091970;28;20050;-61
2022/10/25 03:15:03;;;;;;;11.50;3.10;;;;;;;12.37;100.00;101176.16;5092232;28;20473;-60
2022/10/25 03:17:28;;;;;;;10.07;2.85;;;;;;;12.38;100.00;101176.97;5093073;28;20036;-60
2022/10/25 03:19:53;;;;;;;10.95;2.88;;;;;;;12.37;100.00;101181.47;5092930;28;20048;-61
2022/10/25 03:22:19;;;;;;;9.02;2.92;;;;;;;12.31;100.00;101184.78;5092085;28;20418;-60
2022/10/25 03:24:44;;;;;;;10.45;2.90;;;;;;;12.32;100.00;101193.59;5091805;28;20024;-60
2022/10/25 03:27:09;;;;;;;11.30;3.13;;;;;;;12.35;100.00;101198.59;5091220;28;20043;-61
2022/10/25 03:29:34;;;;;;;9.93;2.83;;;;;;;12.29;100.00;101199.25;5087737;28;20016;-61
2022/10/25 03:32:00;;;;;;;11.45;2.85;;;;;;;12.26;100.00;101205.72;5087902;28;20036;-60
2022/10/25 03:34:25;;;;;;;9.52;2.78;;;;;;;12.23;100.00;101206.88;5087768;28;20028;-60
2022/10/25 03:36:51;;;;;;;13.45;3.17;;;;;;;12.22;100.00;101207.88;5083366;28;20031;-63
2022/10/25 03:39:16;;;;;;;10.93;3.00;;;;;;;12.19;100.00;101208.19;5091512;28;20081;-60
2022/10/25 03:41:41;;;;;;;10.48;3.20;;;;;;;12.17;100.00;101223.47;5092136;28;20078;-60
2022/10/25 03:44:07;;;;;;;11.95;3.15;;;;;;;12.16;100.00;101216.50;5091160;28;20071;-61
2022/10/25 03:46:32;;;;;;;8.18;2.80;;;;;;;12.16;100.00;101219.16;5090182;28;20193;-60
2022/10/25 03:48:57;;;;;;;12.27;3.05;;;;;;;12.11;100.00;101219.63;5092704;28;20048;-60
2022/10/25 03:51:23;;;;;;;9.23;2.83;;;;;;;12.13;100.00;101210.69;5090508;28;20049;-60
2022/10/25 03:53:49;;;;;;;11.73;3.05;;;;;;;12.13;100.00;101223.97;5090444;28;20024;-60
2022/10/25 03:56:14;;;;;;;10.02;3.20;;;;;;;12.10;100.00;101228.59;5086776;28;20044;-60
2022/10/25 03:58:40;;;;;;;7.22;2.80;;;;;;;12.10;100.00;101227.78;5091177;28;20047;-60
2022/10/25 04:01:07;;;;;;;9.82;2.92;;;;;;;12.09;100.00;101231.44;5088597;28;20023;-60
2022/10/25 04:03:33;;;;;;;10.40;3.15;;;;;;;12.08;100.00;101233.25;5088526;28;20024;-60
2022/10/25 04:05:58;;;;;;;11.75;3.40;;;;;;;12.09;100.00;101242.09;5091623;28;20464;-59
2022/10/25 04:08:23;;;;;;;10.15;3.05;;;;;;;12.14;100.00;101244.25;5090068;28;20028;-61
2022/10/25 04:10:49;;;;;;;7.00;3.40;;;;;;;12.07;100.00;101236.06;5091866;28;20051;-60
2022/10/25 04:13:14;;;;;;;11.10;3.00;;;;;;;12.09;100.00;101242.09;5091407;28;20042;-63
2022/10/25 04:15:39;;;;;;;13.40;3.22;;;;;;;12.09;100.00;101239.44;5091752;28;20020;-60
2022/10/25 04:18:05;;;;;;;11.00;3.10;;;;;;;12.07;100.00;101233.41;5085288;28;20027;-62
2022/10/25 04:20:30;;;;;;;9.95;3.25;;;;;;;12.05;100.00;101235.41;5090426;28;20035;-60
2022/10/25 04:22:56;;;;;;;10.38;3.13;;;;;;;12.05;100.00;101240.72;5089508;28;20077;-60
2022/10/25 04:25:23;;;;;;;14.23;3.22;;;;;;;12.03;100.00;101238.19;5090935;28;20039;-60
2022/10/25 04:27:49;;;;;;;11.48;3.17;;;;;;;12.01;100.00;101239.34;5091474;28;20024;-60
2022/10/25 04:30:14;;;;;;;9.38;3.20;;;;;;;12.00;100.00;101249.16;5091337;28;20149;-60
2022/10/25 04:32:39;;;;;;;13.85;3.70;;;;;;;11.97;100.00;101247.66;5089934;28;20145;-61
2022/10/25 04:35:05;;;;;;;11.55;3.47;;;;;;;11.95;100.00;101241.66;5091043;28;20036;-61
2022/10/25 04:37:30;;;;;;;12.60;3.50;;;;;;;11.95;100.00;101252.28;5091027;28;20081;-60
2022/10/25 04:39:55;;;;;;;11.15;4.00;;;;;;;11.96;100.00;101247.81;5091976;28;20028;-60
2022/10/25 04:42:21;;;;;;;11.27;3.70;;;;;;;11.94;100.00;101250.63;5090609;28;20507;-60
2022/10/25 04:44:46;;;;;;;13.40;4.00;;;;;;;11.94;100.00;101247.16;5090132;28;20115;-61
2022/10/25 04:47:11;;;;;;;17.92;3.92;;;;;;;11.92;100.00;101247.31;5090582;28;20340;-60
2022/10/25 04:49:37;;;;;;;12.93;3.75;;;;;;;11.92;100.00;101252.63;5090999;28;20038;-60
2022/10/25 04:52:02;;;;;;;11.05;3.53;;;;;;;11.93;100.00;101248.97;5090572;28;20040;-62
2022/10/25 04:54:27;;;;;;;12.25;3.90;;;;;;;11.90;100.00;101248.47;5089320;28;20032;-60
2022/10/25 04:56:52;;;;;;;14.35;3.90;;;;;;;11.89;100.00;101252.09;5089374;28;20091;-60
2022/10/25 04:59:18;;;;;;;14.82;3.70;;;;;;;11.88;100.00;101256.56;5089908;28;20477;-59
2022/10/25 05:01:43;;;;;;;10.50;3.60;;;;;;;11.91;100.00;101250.97;5091487;28;20028;-60
2022/10/25 05:04:08;;;;;;;8.40;3.90;;;;;;;11.85;100.00;101262.22;5086593;28;20464;-62
2022/10/25 05:06:33;;;;;;;9.00;3.42;;;;;;;11.89;100.00;101258.25;5085780;28;20058;-62
2022/10/25 05:08:59;;;;;;;12.70;3.70;;;;;;;11.85;100.00;101262.22;5089591;28;20032;-60
2022/10/25 05:11:24;;;;;;;15.05;3.60;;;;;;;11.84;100.00;101265.84;5082506;28;20510;-61
2022/10/25 05:13:50;;;;;;;11.75;3.50;;;;;;;11.83;100.00;101264.19;5082744;28;20024;-60
2022/10/25 05:16:22;;;;;;;11.63;3.67;;;;;;;11.80;100.00;101273.31;5081061;28;20036;-61
2022/10/25 05:18:55;;;;;;;14.98;4.03;;;;;;;11.81;100.00;101271.50;5081034;28;20024;-61
2022/10/25 05:21:22;;;;;;;10.77;3.60;;;;;;;11.80;100.00;101275.16;5084879;28;20686;-60
2022/10/25 05:23:47;;;;;;;12.45;3.63;;;;;;;11.77;100.00;101278.97;5084864;28;20030;-62
2022/10/25 05:26:15;;;;;;;13.95;3.60;;;;;;;11.78;100.00;101283.28;5079013;28;20123;-61
2022/10/25 05:28:43;;;;;;;13.02;3.55;;;;;;;11.75;100.00;101282.75;5085622;28;20423;-60
2022/10/25 05:31:13;;;;;;;11.55;3.38;;;;;;;11.77;100.00;101283.44;5083247;28;20119;-61
2022/10/25 05:33:38;;;;;;;10.88;3.25;;;;;;;11.75;100.00;101288.06;5085233;28;20036;-61
2022/10/25 05:36:03;;;;;;;13.52;3.53;;;;;;;11.75;100.00;101288.06;5085132;28;20020;-60
2022/10/25 05:38:29;;;;;;;14.23;3.50;;;;;;;11.76;100.00;101289.75;5086659;28;20032;-61
2022/10/25 05:40:56;;;;;;;10.57;3.47;;;;;;;11.71;100.00;101291.03;5085466;28;20040;-61
2022/10/25 05:43:22;;;;;;;8.75;3.20;;;;;;;11.74;100.00;101297.03;5085610;28;20044;-60
2022/10/25 05:45:47;;;;;;;14.35;3.80;;;;;;;11.77;100.00;101302.03;5084550;28;20073;-62
2022/10/25 05:48:13;;;;;;;13.77;3.80;;;;;;;11.74;100.00;101302.34;5088517;28;20543;-60
2022/10/25 05:50:38;;;;;;;10.60;3.78;;;;;;;11.70;100.00;101300.00;5085532;28;20031;-60
2022/10/25 05:53:03;;;;;;;11.82;3.92;;;;;;;11.69;100.00;101301.00;5086204;28;20039;-60
2022/10/25 05:55:29;;;;;;;10.70;3.88;;;;;;;11.69;100.00;101311.63;5083420;28;20031;-61
2022/10/25 05:57:54;;;;;;;11.23;3.63;;;;;;;11.66;100.00;101317.28;5086974;28;20047;-61
2022/10/25 06:00:19;;;;;;;10.05;3.80;;;;;;;11.69;100.00;101311.63;5084541;28;20024;-61
2022/10/25 06:02:45;;;;;;;13.25;4.43;;;;;;;11.68;100.00;101319.75;5087158;28;20028;-60
2022/10/25 06:05:10;;;;;;;11.88;4.65;;;;;;;11.69;100.00;101322.25;5082768;28;20024;-61
2022/10/25 06:07:35;;;;;;;11.00;4.07;;;;;;;11.75;100.00;101322.63;5086784;28;20489;-60
2022/10/25 06:10:00;;;;;;;17.42;4.90;;;;;;;11.70;100.00;101323.91;5083753;28;20031;-61
2022/10/25 06:12:26;;;;;;;13.48;5.20;;;;;;;11.71;100.00;101325.56;5083581;28;20479;-59
2022/10/25 06:14:51;;;;;;;12.95;5.38;;;;;;;11.74;100.00;101328.94;5084254;28;20035;-63
2022/10/25 06:17:16;;;;;;;13.00;5.38;;;;;;;11.72;100.00;101331.72;5085267;28;20400;-62
2022/10/25 06:19:41;;;;;;;15.07;5.55;;;;;;;11.71;100.00;101336.19;5083698;28;20241;-63
2022/10/25 06:22:07;;;;;;;12.45;5.28;;;;;;;11.74;100.00;101339.56;5084857;28;20762;-62
2022/10/25 06:24:32;;;;;;;13.93;5.60;;;;;;;11.73;100.00;101341.38;5085176;28;20028;-61
2022/10/25 06:26:57;;;;;;;15.00;5.95;;;;;;;11.76;100.00;101349.03;5084615;28;20028;-61
2022/10/25 06:29:22;;;;;;;18.52;6.15;;;;;;;11.81;100.00;101346.75;5086373;28;20040;-61
2022/10/25 06:31:48;;;;;;;12.80;5.65;;;;;;;11.78;100.00;101356.81;5085208;28;20024;-64
2022/10/25 06:34:13;;;;;;;17.00;6.30;;;;;;;11.74;100.00;101351.00;5083347;28;20024;-61
2022/10/25 06:36:39;;;;;;;15.25;6.03;;;;;;;11.79;100.00;101366.50;5087843;28;20024;-60
2022/10/25 06:39:04;;;;;;;13.30;5.95;;;;;;;11.79;100.00;101361.19;5086230;28;20078;-60
2022/10/25 06:41:30;;;;;;;13.52;5.53;;;;;;;11.75;100.00;101350.00;5092222;28;20383;-59
2022/10/25 06:43:57;;;;;;;15.57;6.05;;;;;;;11.76;100.00;101361.47;5090098;28;20031;-59
2022/10/25 06:46:31;;;;;;;15.52;6.10;;;;;;;11.76;100.00;101361.47;5087385;28;20028;-61
2022/10/25 06:48:58;;;;;;;15.85;6.30;;;;;;;11.78;100.00;101362.13;5089927;28;20036;-59
2022/10/25 06:51:26;;;;;;;19.42;6.35;;;;;;;11.77;100.00;101366.63;5088904;28;20555;-59
2022/10/25 06:53:56;;;;;;;16.40;6.22;;;;;;;11.80;100.00;101371.63;5084656;28;20047;-59
2022/10/25 06:56:22;;;;;;;16.90;6.88;;;;;;;11.83;100.00;101371.31;5086628;28;20063;-59
2022/10/25 06:58:47;;;;;;;18.48;6.75;;;;;;;11.81;100.00;101377.78;5091420;28;20146;-61
2022/10/25 07:01:14;;;;;;;14.77;6.80;;;;;;;11.81;100.00;101380.44;5090336;28;20038;-60
2022/10/25 07:03:40;;;;;;;18.27;6.80;;;;;;;11.78;100.00;101378.94;5085065;28;20028;-60
2022/10/25 07:06:11;;;;;;;17.10;6.80;;;;;;;11.80;100.00;101386.75;5087974;28;20479;-58
2022/10/25 07:08:39;;;;;;;15.02;6.68;;;;;;;11.80;100.00;101381.44;5088322;28;20616;-59
2022/10/25 07:11:05;;;;;;;16.23;7.05;;;;;;;11.83;100.00;101397.06;5090675;28;20055;-60
2022/10/25 07:13:32;;;;;;;16.00;7.00;;;;;;;11.81;100.00;101399.03;5087282;28;20031;-61
2022/10/25 07:16:05;;;;;;;15.80;6.85;;;;;;;11.81;100.00;101393.72;5085469;28;20031;-60
2022/10/25 07:18:31;;;;;;;14.70;6.43;;;;;;;11.89;100.00;101401.75;5087463;28;20422;-60
2022/10/25 07:21:00;;;;;;;19.75;7.22;;;;;;;11.89;100.00;101396.44;5087270;28;20564;-61
2022/10/25 07:23:26;;;;;;;18.55;7.22;;;;;;;11.91;100.00;101402.44;5086404;28;20039;-59
2022/10/25 07:25:52;;;;;;;18.75;6.85;;;;;;;11.93;100.00;101405.75;5090597;28;20020;-60
2022/10/25 07:28:17;;;;;;;16.83;6.78;;;;;;;11.98;100.00;101416.78;5090799;28;20116;-59
2022/10/25 07:30:46;;;;;;;16.10;6.68;;;;;;;11.98;100.00;101414.09;5088196;28;20036;-60
2022/10/25 07:33:13;;;;;;;15.65;7.00;;;;;;;11.98;100.00;101408.78;5088355;28;20063;-59
2022/10/25 07:35:39;;;;;;;16.45;6.53;;;;;;;12.03;100.00;101418.13;5083773;28;20092;-58
2022/10/25 07:38:04;;;;;;;16.48;6.88;;;;;;;12.03;100.00;101423.44;5084781;28;20024;-61
2022/10/25 07:40:29;;;;;;;18.00;6.53;;;;;;;12.09;100.00;101426.31;5085119;28;20044;-60
2022/10/25 07:42:54;;;;;;;17.35;6.97;;;;;;;12.11;100.00;101423.50;5085741;28;20028;-60
2022/10/25 07:45:20;;;;;;;16.75;7.10;;;;;;;12.17;100.00;101430.00;5086948;28;20421;-59
2022/10/25 07:47:45;;;;;;;15.20;6.65;;;;;;;12.21;100.00;101432.22;5086434;28;20059;-61
2022/10/25 07:50:10;;;;;;;15.20;6.78;;;;;;;12.23;100.00;101426.72;5084183;28;20031;-60
2022/10/25 07:52:35;;;;;;;18.35;7.45;;;;;;;12.20;100.00;101433.19;5090142;28;20104;-60
2022/10/25 07:55:01;;;;;;;17.85;6.85;;;;;;;12.22;100.00;101433.88;5086217;28;20027;-61
2022/10/25 07:57:26;;;;;;;17.33;7.22;;;;;;;12.26;100.00;101433.56;5089297;28;20080;-62
2022/10/25 07:59:51;;;;;;;17.88;7.10;;;;;;;12.28;100.00;101437.72;5088667;28;20360;-61
2022/10/25 08:02:16;;;;;;;18.83;7.35;;;;;;;12.31;100.00;101436.56;5080502;28;20460;-62
2022/10/25 08:04:43;;;;;;;16.45;7.30;;;;;;;12.33;100.00;101445.25;5078054;28;20036;-61
2022/10/25 08:07:08;;;;;;;15.65;6.82;;;;;;;12.34;100.00;101452.22;5084964;28;20032;-60
2022/10/25 08:09:33;;;;;;;15.27;6.85;;;;;;;12.35;100.00;101448.56;5083841;28;20086;-60
2022/10/25 08:11:58;;;;;;;18.52;7.50;;;;;;;12.35;100.00;101454.72;5090083;28;20054;-59
2022/10/25 08:14:24;;;;;;;20.05;7.20;;;;;;;12.38;100.00;101448.25;5089431;28;20043;-60
2022/10/25 08:16:49;;;;;;;18.88;7.32;;;;;;;12.41;100.00;101453.25;5090458;28;20024;-60
2022/10/25 08:19:14;;;;;;;13.43;6.75;;;;;;;12.44;100.00;101458.25;5087193;28;20028;-64
2022/10/25 08:21:39;;;;;;;15.48;6.95;;;;;;;12.48;100.00;101456.94;5076906;28;20354;-64
2022/10/25 08:24:05;;;;;;;15.23;7.10;;;;;;;12.49;100.00;101455.13;5080870;28;20020;-64
2022/10/25 08:26:30;;;;;;;18.55;7.38;;;;;;;12.50;100.00;101457.59;5082292;28;20032;-60
2022/10/25 08:28:55;;;;;;;16.63;6.85;;;;;;;12.53;100.00;101455.66;5087334;28;20390;-60
2022/10/25 08:31:21;;;;;;;17.13;6.78;;;;;;;12.57;100.00;101455.16;5084177;28;20028;-60
2022/10/25 08:33:46;;;;;;;16.83;6.72;;;;;;;12.67;100.00;101456.88;5090105;28;20089;-59
2022/10/25 08:36:11;;;;;;;17.95;7.03;;;;;;;12.63;100.00;101451.84;5083997;28;20613;-60
2022/10/25 08:38:37;;;;;;;22.70;7.30;;;;;;;12.71;100.00;101460.84;5086535;28;20483;-62
2022/10/25 08:41:13;;;;;;;16.25;7.35;;;;;;;12.75;100.00;101460.41;5086413;28;20078;-63
2022/10/25 08:43:41;;;;;;;17.15;6.47;;;;;;;12.80;100.00;101461.72;5088960;28;20058;-62
2022/10/25 08:46:25;;;;;;;14.98;6.88;;;;;;;12.83;100.00;101462.22;5103332;28;20368;-62
2022/10/25 08:49:05;;;;;;;19.35;6.45;;;;;;;12.82;100.00;101462.41;5086363;28;20335;-62
2022/10/25 08:51:36;;;;;;;18.00;6.57;;;;;;;12.87;100.00;101462.75;5085154;28;20441;-62
2022/10/25 08:54:17;;;;;;;17.55;6.20;;;;;;;12.93;100.00;101467.41;5087165;28;20036;-62
2022/10/25 08:56:43;;;;;;;13.70;6.00;;;;;;;12.98;100.00;101470.44;5085386;28;20036;-61
2022/10/25 08:59:15;;;;;;;15.93;6.10;;;;;;;12.98;100.00;101465.09;5084757;28;20530;-61
2022/10/25 09:01:49;;;;;;;17.67;6.00;;;;;;;13.12;100.00;101476.16;5086735;28;20046;-61
2022/10/25 09:04:14;;;;;;;15.77;5.55;;;;;;;13.14;100.00;101468.81;5083401;28;20120;-61
2022/10/25 09:06:55;;;;;;;17.42;6.00;;;;;;;13.17;100.00;101479.13;5091603;28;20111;-61
2022/10/25 09:09:37;;;;;;;13.35;5.93;;;;;;;13.16;100.00;101482.81;5084000;28;20032;-63
2022/10/25 09:12:27;;;;;;;14.80;5.80;;;;;;;13.16;100.00;101472.16;5084457;28;20036;-62
2022/10/25 09:15:16;;;;;;;17.50;6.68;;;;;;;13.18;100.00;101496.81;5084589;28;20031;-62
2022/10/25 09:17:48;;;;;;;15.73;6.18;;;;;;;13.22;100.00;101497.31;5085753;28;20035;-62
2022/10/25 09:20:27;;;;;;;14.27;6.07;;;;;;;13.26;100.00;101502.13;5087776;28;20441;-62
2022/10/25 09:23:06;;;;;;;15.32;6.15;;;;;;;13.29;100.00;101495.66;5088111;28;20036;-64
2022/10/25 09:25:54;;;;;;;14.00;5.60;;;;;;;13.32;100.00;101504.16;5087771;28;20044;-60
2022/10/25 09:28:24;;;;;;;12.98;5.80;;;;;;;13.34;100.00;101497.81;5081924;28;20025;-60
2022/10/25 09:30:55;;;;;;;15.75;6.03;;;;;;;13.34;100.00;101503.16;5087906;28;20028;-60
2022/10/25 09:33:29;;;;;;;16.02;5.57;;;;;;;13.34;100.00;101503.16;5092413;28;20119;-61
2022/10/25 09:35:56;;;;;;;13.80;5.47;;;;;;;13.39;100.00;101508.81;5093180;28;20115;-61
2022/10/25 09:38:28;;;;;;;16.40;5.28;;;;;;;13.38;100.00;101509.81;5088809;28;20028;-61
2022/10/25 09:41:04;;;;;;;14.23;5.30;;;;;;;13.44;100.00;101506.50;5087051;28;20052;-60
2022/10/25 09:43:38;;;;;;;14.93;5.00;;;;;;;13.45;100.00;101516.16;5090158;28;20028;-60
2022/10/25 09:46:15;;;;;;;15.77;4.63;;;;;;;13.43;100.00;101510.16;5084620;28;20046;-61
2022/10/25 09:48:52;;;;;;;15.00;5.20;;;;;;;13.45;100.00;101517.00;5086294;28;20040;-60
2022/10/25 09:51:23;;;;;;;14.13;5.15;;;;;;;13.45;100.00;101510.84;5085397;28;20020;-61
2022/10/25 09:53:50;;;;;;;14.98;5.35;;;;;;;13.45;100.00;101510.84;5083964;28;20067;-61
2022/10/25 09:56:16;;;;;;;16.55;5.28;;;;;;;13.44;100.00;101520.63;5091809;28;20036;-60
2022/10/25 09:58:46;;;;;;;14.07;4.82;;;;;;;13.45;99.55;101524.16;5085569;28;20031;-62
2022/10/25 10:01:16;;;;;;;14.90;4.47;;;;;;;13.49;99.56;101522.88;5091079;28;20388;-60
2022/10/25 10:03:41;;;;;;;12.27;4.22;;;;;;;13.51;100.00;101523.53;5090063;28;20064;-60
2022/10/25 10:06:35;;;;;;;14.20;4.35;;;;;;;13.56;99.69;101526.53;5089272;28;20493;-60
2022/10/25 10:09:12;;;;;;;12.85;4.10;;;;;;;13.61;99.26;101523.38;5083470;28;20036;-61
2022/10/25 10:11:38;;;;;;;12.13;4.10;;;;;;;13.62;97.74;101529.53;5089822;28;20036;-62
2022/10/25 10:14:16;;;;;;;11.30;4.18;;;;;;;13.65;97.17;101527.38;5085037;28;20084;-61
2022/10/25 10:16:52;;;;;;;14.15;4.35;;;;;;;13.66;97.85;101536.22;5087924;28;21377;-61
2022/10/25 10:19:28;;;;;;;11.20;4.30;;;;;;;13.64;98.56;101540.88;5089377;28;20094;-61
2022/10/25 10:21:57;;;;;;;12.57;4.38;;;;;;;13.65;98.02;101535.38;5085237;28;20052;-60
2022/10/25 10:24:32;;;;;;;11.65;4.25;;;;;;;13.65;97.78;101535.38;5086450;28;20035;-60
2022/10/25 10:26:59;;;;;;;9.38;3.90;;;;;;;13.66;97.86;101541.56;5089801;28;20024;-60
2022/10/25 10:29:30;;;;;;;13.50;3.88;;;;;;;13.67;97.81;101543.22;5088470;28;20032;-61
2022/10/25 10:32:01;;;;;;;15.13;4.05;;;;;;;13.65;97.79;101545.19;5090120;28;20035;-61
2022/10/25 10:34:30;;;;;;;14.93;4.30;;;;;;;13.66;97.40;101547.69;5085497;28;20082;-60
2022/10/25 10:37:06;;;;;;;14.57;4.20;;;;;;;13.69;97.75;101541.22;5083482;28;20574;-60
2022/10/25 10:39:32;;;;;;;13.00;4.07;;;;;;;13.68;97.40;101544.88;5088626;28;20027;-61
2022/10/25 10:42:15;;;;;;;9.88;4.10;;;;;;;13.70;98.30;101543.72;5086252;28;20060;-60
2022/10/25 10:44:40;;;;;;;11.30;3.80;;;;;;;13.74;99.07;101544.22;5091927;28;20375;-59
2022/10/25 10:47:10;;;;;;;11.27;3.80;;;;;;;13.76;98.48;101550.19;5089178;28;20032;-60
2022/10/25 10:49:39;;;;;;;15.93;4.50;;;;;;;13.87;97.52;101548.22;5090742;28;20518;-62
2022/10/25 10:52:22;;;;;;;13.88;4.10;;;;;;;13.88;97.44;101556.06;5085620;28;20016;-60
2022/10/25 10:54:49;;;;;;;;;;;;;;;14.00;98.11;101551.22;5084623;28;20028;-61
2022/10/25 10:57:28;;;;;;;14.02;3.92;;;;;;;14.01;96.93;101547.53;5092467;28;19912;-61
2022/10/25 10:59:55;;;;;;;15.27;4.05;;;;;;;14.04;96.18;101539.22;5087163;28;20110;-62
2022/10/25 11:02:39;;;;;;;13.10;3.70;;;;;;;14.17;94.97;101551.22;5074729;28;20484;-61
2022/10/25 11:05:36;;;;;;;10.10;3.65;;;;;;;14.18;94.99;101550.22;5085398;28;20012;-61
2022/10/25 11:08:08;;;;;;;10.50;3.47;;;;;;;14.25;94.11;101553.88;5086588;28;20483;-60
2022/10/25 11:10:37;;;;;;;14.10;3.80;;;;;;;14.30;94.48;101559.53;5089715;28;20036;-62
2022/10/25 11:13:05;;;;;;;10.95;3.80;;;;;;;14.33;93.18;101548.53;5085468;28;20028;-63
2022/10/25 11:15:45;;;;;;;11.48;3.80;;;;;;;14.37;92.64;101546.38;5087032;28;20036;-61
2022/10/25 11:18:12;;;;;;;12.98;3.78;;;;;;;14.30;93.73;101548.88;5083407;28;20032;-62
2022/10/25 11:21:00;;;;;;;9.68;3.40;;;;;;;14.38;94.57;101551.53;5086816;28;20052;-61